createdAt,value
2023-05-10T00:02:14.051Z,11.30
2023-05-10T00:04:42.360Z,11.30
2023-05-10T00:07:12.322Z,11.20
2023-05-10T00:09:41.030Z,11.20
2023-05-10T00:12:09.535Z,11.20
2023-05-10T00:14:38.038Z,11.10
2023-05-10T00:17:06.386Z,11.10
2023-05-10T00:19:34.840Z,11.10
2023-05-10T00:22:04.093Z,11.10
2023-05-10T00:24:34.177Z,11.10
2023-05-10T00:27:04.955Z,11.00
2023-05-10T00:29:34.852Z,11.00
2023-05-10T00:32:03.845Z,11.00
2023-05-10T00:34:33.203Z,11.00
2023-05-10T00:37:02.466Z,10.90
2023-05-10T00:39:30.819Z,10.90
2023-05-10T00:42:01.182Z,10.90
2023-05-10T00:44:30.279Z,10.90
2023-05-10T00:46:59.258Z,10.90
2023-05-10T00:49:27.796Z,10.90
2023-05-10T00:51:56.285Z,10.90
2023-05-10T00:54:24.868Z,10.90
2023-05-10T00:56:53.875Z,10.90
2023-05-10T00:59:23.879Z,10.90
2023-05-10T01:01:52.658Z,10.80
2023-05-10T01:04:26.571Z,10.90
2023-05-10T01:06:55.636Z,10.80
2023-05-10T01:09:24.716Z,10.90
2023-05-10T01:11:53.240Z,10.80
2023-05-10T01:14:23.435Z,10.80
2023-05-10T01:16:52.369Z,10.80
2023-05-10T01:19:24.578Z,10.90
2023-05-10T01:22:02.198Z,10.80
2023-05-10T01:24:58.046Z,10.80
2023-05-10T01:27:44.647Z,10.80
2023-05-10T01:31:04.335Z,10.80
2023-05-10T01:33:39.446Z,10.70
2023-05-10T01:36:15.264Z,10.70
2023-05-10T01:38:47.457Z,10.70
2023-05-10T01:41:20.530Z,10.70
2023-05-10T01:43:57.929Z,10.60
2023-05-10T01:46:32.112Z,10.70
2023-05-10T01:49:04.429Z,10.60
2023-05-10T01:51:41.696Z,10.60
2023-05-10T01:54:11.795Z,10.60
2023-05-10T01:56:42.213Z,10.60
2023-05-10T01:59:15.516Z,10.60
2023-05-10T02:01:45.025Z,10.50
2023-05-10T02:04:17.740Z,10.50
2023-05-10T02:06:49.505Z,10.50
2023-05-10T02:09:19.874Z,10.50
2023-05-10T02:11:51.160Z,10.50
2023-05-10T02:14:21.834Z,10.50
2023-05-10T02:16:52.951Z,10.40
2023-05-10T02:19:24.031Z,10.40
2023-05-10T02:21:53.766Z,10.40
2023-05-10T02:24:23.775Z,10.40
2023-05-10T02:26:53.365Z,10.40
2023-05-10T02:29:24.299Z,10.40
2023-05-10T02:31:55.062Z,10.40
2023-05-10T02:34:27.625Z,10.40
2023-05-10T02:36:58.195Z,10.40
2023-05-10T02:39:29.653Z,10.30
2023-05-10T02:42:00.402Z,10.30
2023-05-10T02:44:32.346Z,10.30
2023-05-10T02:47:01.577Z,10.30
2023-05-10T02:49:33.361Z,10.30
2023-05-10T02:52:07.998Z,10.30
2023-05-10T02:54:43.338Z,10.30
2023-05-10T02:57:16.387Z,10.30
2023-05-10T02:59:46.089Z,10.30
2023-05-10T03:02:15.229Z,10.30
2023-05-10T03:04:45.347Z,10.30
2023-05-10T03:07:13.962Z,10.20
2023-05-10T03:09:43.102Z,10.20
2023-05-10T03:12:17.718Z,10.20
2023-05-10T03:14:55.530Z,10.20
2023-05-10T03:17:31.384Z,10.20
2023-05-10T03:20:08.581Z,10.20
2023-05-10T03:22:40.539Z,10.10
2023-05-10T03:25:12.992Z,10.10
2023-05-10T03:27:45.625Z,10.10
2023-05-10T03:30:15.738Z,10.10
2023-05-10T03:32:44.220Z,10.00
2023-05-10T03:35:15.303Z,10.00
2023-05-10T03:37:43.970Z,10.00
2023-05-10T03:40:12.713Z,10.00
2023-05-10T03:42:43.699Z,10.00
2023-05-10T03:45:12.884Z,10.00
2023-05-10T03:47:41.815Z,10.10
2023-05-10T03:50:11.457Z,10.00
2023-05-10T03:52:41.583Z,10.10
2023-05-10T03:55:10.240Z,10.10
2023-05-10T03:57:39.998Z,10.10
2023-05-10T04:00:10.573Z,10.10
2023-05-10T04:02:46.005Z,10.10
2023-05-10T04:05:19.680Z,10.00
2023-05-10T04:07:50.291Z,10.00
2023-05-10T04:10:18.965Z,10.00
2023-05-10T04:12:47.473Z,10.00
2023-05-10T04:15:15.874Z,10.00
2023-05-10T04:17:44.769Z,10.00
2023-05-10T04:20:16.655Z,10.00
2023-05-10T04:22:49.670Z,10.10
2023-05-10T04:25:18.166Z,10.10
2023-05-10T04:27:46.545Z,10.10
2023-05-10T04:30:15.558Z,10.10
2023-05-10T04:32:46.118Z,10.10
2023-05-10T04:35:15.792Z,10.10
2023-05-10T04:37:44.496Z,10.10
2023-05-10T04:40:14.989Z,10.20
2023-05-10T04:42:43.684Z,10.20
2023-05-10T04:45:12.657Z,10.20
2023-05-10T04:47:43.751Z,10.20
2023-05-10T04:50:12.028Z,10.20
2023-05-10T04:52:40.306Z,10.20
2023-05-10T04:55:10.578Z,10.20
2023-05-10T04:57:40.275Z,10.30
2023-05-10T05:00:09.860Z,10.30
2023-05-10T05:02:38.260Z,10.30
2023-05-10T05:05:07.527Z,10.30
2023-05-10T05:07:35.771Z,10.30
2023-05-10T05:10:04.201Z,10.30
2023-05-10T05:12:32.781Z,10.40
2023-05-10T05:15:02.561Z,10.40
2023-05-10T05:17:33.425Z,10.40
2023-05-10T05:20:01.811Z,10.40
2023-05-10T05:22:30.188Z,10.50
2023-05-10T05:24:59.398Z,10.60
2023-05-10T05:27:28.873Z,10.60
2023-05-10T05:29:57.838Z,10.60
2023-05-10T05:32:27.859Z,10.60
2023-05-10T05:34:56.183Z,10.70
2023-05-10T05:37:25.445Z,10.70
2023-05-10T05:39:55.390Z,10.80
2023-05-10T05:42:23.900Z,10.80
2023-05-10T05:44:52.369Z,10.90
2023-05-10T21:32:45.760Z,13.20
2023-05-10T21:35:14.232Z,13.10
2023-05-10T21:37:42.746Z,13.10
2023-05-10T21:40:12.834Z,13.10
2023-05-10T21:42:41.179Z,13.10
2023-05-10T21:45:09.941Z,13.10
2023-05-10T21:47:38.274Z,13.10
2023-05-10T21:50:10.301Z,13.00
2023-05-10T21:52:38.907Z,13.00
2023-05-10T21:55:08.473Z,13.00
2023-05-10T21:57:37.816Z,13.00
2023-05-10T22:00:08.055Z,13.00
2023-05-10T22:02:36.392Z,13.00
2023-05-10T22:05:05.233Z,12.90
2023-05-10T22:07:35.136Z,13.00
2023-05-10T22:10:03.429Z,12.90
2023-05-10T22:12:31.649Z,12.90
2023-05-10T22:17:35.227Z,12.70
2023-05-10T22:20:03.750Z,12.70
2023-05-10T22:22:34.620Z,12.70
2023-05-10T22:25:02.963Z,12.70
2023-05-10T22:27:31.282Z,12.60
2023-05-10T22:29:59.542Z,12.50
2023-05-10T22:32:27.912Z,12.50
2023-05-10T22:34:56.417Z,12.40
2023-05-10T22:37:24.713Z,12.40
2023-05-10T22:39:54.319Z,12.40
2023-05-10T22:42:22.636Z,12.30
2023-05-10T22:44:50.874Z,12.30
2023-05-10T22:47:19.150Z,12.20
2023-05-10T22:49:47.444Z,12.20
2023-05-10T22:52:15.717Z,12.10
2023-05-10T22:54:44.253Z,12.10
2023-05-10T22:57:14.397Z,12.00
2023-05-10T22:59:42.813Z,12.10
2023-05-10T23:02:11.375Z,12.00
2023-05-10T23:04:39.728Z,12.00
2023-05-10T23:07:08.121Z,12.00
2023-05-10T23:09:36.412Z,12.10
2023-05-10T23:12:04.914Z,12.10
2023-05-10T23:14:34.583Z,12.00
2023-05-10T23:17:03.065Z,12.10
2023-05-10T23:19:31.365Z,12.10
2023-05-10T23:21:59.912Z,12.10
2023-05-10T23:24:28.178Z,12.10
2023-05-10T23:26:56.401Z,12.10
2023-05-10T23:29:26.313Z,12.10
2023-05-10T23:31:56.055Z,12.00
2023-05-10T23:34:24.365Z,12.00
2023-05-10T23:36:52.954Z,12.10
2023-05-10T23:39:21.332Z,12.10
2023-05-10T23:41:49.559Z,12.00
2023-05-10T23:44:17.875Z,12.00
2023-05-10T23:46:46.216Z,11.90
2023-05-10T23:49:15.901Z,11.90
2023-05-10T23:51:44.150Z,11.80
2023-05-10T23:54:12.430Z,11.70
2023-05-10T23:56:40.654Z,11.70
2023-05-10T23:59:08.896Z,11.70
